sensor_id;sensor_type;location;lat;lon;timestamp;P1;durP1;ratioP1;P2;durP2;ratioP2
55609;SDS011;41486;52.502;13.486;2023-08-07T00:00:40;1.55;;;1.08;;
55609;SDS011;41486;52.502;13.486;2023-08-07T00:03:08;2.83;;;1.23;;
55609;SDS011;41486;52.502;13.486;2023-08-07T00:05:38;1.88;;;1.10;;
55609;SDS011;41486;52.502;13.486;2023-08-07T00:08:05;3.45;;;1.30;;
55609;SDS011;41486;52.502;13.486;2023-08-07T00:10:33;2.72;;;1.30;;
55609;SDS011;41486;52.502;13.486;2023-08-07T00:13:03;1.48;;;1.23;;
55609;SDS011;41486;52.502;13.486;2023-08-07T00:15:31;1.73;;;1.05;;
55609;SDS011;41486;52.502;13.486;2023-08-07T00:18:00;1.70;;;1.27;;
55609;SDS011;41486;52.502;13.486;2023-08-07T00:20:28;3.78;;;1.67;;
55609;SDS011;41486;52.502;13.486;2023-08-07T00:22:56;2.55;;;1.20;;
55609;SDS011;41486;52.502;13.486;2023-08-07T00:25:24;4.55;;;1.00;;
55609;SDS011;41486;52.502;13.486;2023-08-07T00:27:52;1.58;;;1.20;;
55609;SDS011;41486;52.502;13.486;2023-08-07T00:30:21;1.73;;;1.08;;
55609;SDS011;41486;52.502;13.486;2023-08-07T00:32:49;1.42;;;1.05;;
55609;SDS011;41486;52.502;13.486;2023-08-07T00:35:17;2.20;;;1.42;;
55609;SDS011;41486;52.502;13.486;2023-08-07T00:37:45;3.95;;;1.10;;
55609;SDS011;41486;52.502;13.486;2023-08-07T00:40:13;2.30;;;1.52;;
55609;SDS011;41486;52.502;13.486;2023-08-07T00:42:41;2.05;;;1.40;;
55609;SDS011;41486;52.502;13.486;2023-08-07T00:45:09;2.53;;;1.63;;
55609;SDS011;41486;52.502;13.486;2023-08-07T00:47:39;3.65;;;1.58;;
55609;SDS011;41486;52.502;13.486;2023-08-07T00:50:09;4.95;;;1.73;;
55609;SDS011;41486;52.502;13.486;2023-08-07T00:52:37;3.10;;;1.75;;
55609;SDS011;41486;52.502;13.486;2023-08-07T00:55:06;4.05;;;1.88;;
55609;SDS011;41486;52.502;13.486;2023-08-07T00:57:34;2.75;;;1.45;;
55609;SDS011;41486;52.502;13.486;2023-08-07T01:00:02;3.63;;;1.92;;
55609;SDS011;41486;52.502;13.486;2023-08-07T01:05:02;2.00;;;1.48;;
55609;SDS011;41486;52.502;13.486;2023-08-07T01:07:30;5.30;;;1.63;;
55609;SDS011;41486;52.502;13.486;2023-08-07T01:09:58;1.95;;;1.55;;
55609;SDS011;41486;52.502;13.486;2023-08-07T01:12:30;2.72;;;1.60;;
55609;SDS011;41486;52.502;13.486;2023-08-07T01:15:04;1.53;;;1.27;;
55609;SDS011;41486;52.502;13.486;2023-08-07T01:17:40;2.15;;;1.40;;
55609;SDS011;41486;52.502;13.486;2023-08-07T01:20:11;2.40;;;1.30;;
55609;SDS011;41486;52.502;13.486;2023-08-07T01:22:40;4.40;;;1.40;;
55609;SDS011;41486;52.502;13.486;2023-08-07T01:25:08;4.38;;;1.70;;
55609;SDS011;41486;52.502;13.486;2023-08-07T01:27:40;2.47;;;1.30;;
55609;SDS011;41486;52.502;13.486;2023-08-07T01:30:14;2.20;;;1.60;;
55609;SDS011;41486;52.502;13.486;2023-08-07T01:32:51;1.63;;;1.30;;
55609;SDS011;41486;52.502;13.486;2023-08-07T01:35:27;2.83;;;1.50;;
55609;SDS011;41486;52.502;13.486;2023-08-07T01:37:58;3.72;;;1.83;;
55609;SDS011;41486;52.502;13.486;2023-08-07T01:40:28;3.75;;;1.42;;
55609;SDS011;41486;52.502;13.486;2023-08-07T01:42:57;2.80;;;1.50;;
55609;SDS011;41486;52.502;13.486;2023-08-07T01:45:27;1.90;;;1.40;;
55609;SDS011;41486;52.502;13.486;2023-08-07T01:47:56;1.65;;;1.40;;
55609;SDS011;41486;52.502;13.486;2023-08-07T01:50:24;1.83;;;1.30;;
55609;SDS011;41486;52.502;13.486;2023-08-07T01:52:52;1.70;;;1.45;;
55609;SDS011;41486;52.502;13.486;2023-08-07T01:55:22;5.50;;;1.67;;
55609;SDS011;41486;52.502;13.486;2023-08-07T01:57:51;3.72;;;2.22;;
55609;SDS011;41486;52.502;13.486;2023-08-07T02:00:19;2.20;;;1.85;;
55609;SDS011;41486;52.502;13.486;2023-08-07T02:02:47;2.67;;;1.48;;
55609;SDS011;41486;52.502;13.486;2023-08-07T02:05:16;2.67;;;1.80;;
55609;SDS011;41486;52.502;13.486;2023-08-07T02:07:44;4.15;;;2.00;;
55609;SDS011;41486;52.502;13.486;2023-08-07T02:10:12;1.98;;;1.48;;
55609;SDS011;41486;52.502;13.486;2023-08-07T02:12:42;2.85;;;1.52;;
55609;SDS011;41486;52.502;13.486;2023-08-07T02:15:10;3.67;;;2.13;;
55609;SDS011;41486;52.502;13.486;2023-08-07T02:17:38;3.13;;;1.60;;
55609;SDS011;41486;52.502;13.486;2023-08-07T02:20:08;3.55;;;1.98;;
55609;SDS011;41486;52.502;13.486;2023-08-07T02:22:39;3.08;;;1.63;;
55609;SDS011;41486;52.502;13.486;2023-08-07T02:25:07;3.95;;;1.92;;
55609;SDS011;41486;52.502;13.486;2023-08-07T02:27:37;3.03;;;1.60;;
55609;SDS011;41486;52.502;13.486;2023-08-07T02:30:07;2.42;;;1.95;;
55609;SDS011;41486;52.502;13.486;2023-08-07T02:32:35;6.03;;;2.15;;
55609;SDS011;41486;52.502;13.486;2023-08-07T02:35:04;6.07;;;1.98;;
55609;SDS011;41486;52.502;13.486;2023-08-07T02:37:32;2.50;;;1.67;;
55609;SDS011;41486;52.502;13.486;2023-08-07T02:40:00;2.63;;;1.80;;
55609;SDS011;41486;52.502;13.486;2023-08-07T02:42:27;4.78;;;2.08;;
55609;SDS011;41486;52.502;13.486;2023-08-07T02:44:55;4.18;;;2.22;;
55609;SDS011;41486;52.502;13.486;2023-08-07T02:47:24;5.38;;;2.22;;
55609;SDS011;41486;52.502;13.486;2023-08-07T02:49:53;3.50;;;2.47;;
55609;SDS011;41486;52.502;13.486;2023-08-07T02:52:21;2.70;;;1.98;;
55609;SDS011;41486;52.502;13.486;2023-08-07T02:54:48;6.20;;;2.28;;
55609;SDS011;41486;52.502;13.486;2023-08-07T02:57:16;3.72;;;2.08;;
55609;SDS011;41486;52.502;13.486;2023-08-07T02:59:45;3.20;;;1.95;;
55609;SDS011;41486;52.502;13.486;2023-08-07T03:02:13;3.70;;;2.20;;
55609;SDS011;41486;52.502;13.486;2023-08-07T03:04:42;5.20;;;2.20;;
55609;SDS011;41486;52.502;13.486;2023-08-07T03:07:10;4.13;;;2.03;;
55609;SDS011;41486;52.502;13.486;2023-08-07T03:09:38;5.68;;;2.30;;
55609;SDS011;41486;52.502;13.486;2023-08-07T03:12:06;3.97;;;2.33;;
55609;SDS011;41486;52.502;13.486;2023-08-07T03:14:35;3.20;;;2.40;;
55609;SDS011;41486;52.502;13.486;2023-08-07T03:17:03;3.33;;;2.33;;
55609;SDS011;41486;52.502;13.486;2023-08-07T03:19:31;3.58;;;2.00;;
55609;SDS011;41486;52.502;13.486;2023-08-07T03:22:01;3.00;;;2.38;;
55609;SDS011;41486;52.502;13.486;2023-08-07T03:24:29;7.47;;;2.53;;
55609;SDS011;41486;52.502;13.486;2023-08-07T03:26:57;5.38;;;2.15;;
55609;SDS011;41486;52.502;13.486;2023-08-07T03:29:25;3.33;;;2.55;;
55609;SDS011;41486;52.502;13.486;2023-08-07T03:31:53;2.83;;;2.00;;
55609;SDS011;41486;52.502;13.486;2023-08-07T03:34:21;4.47;;;2.30;;
55609;SDS011;41486;52.502;13.486;2023-08-07T03:36:49;4.20;;;2.88;;
55609;SDS011;41486;52.502;13.486;2023-08-07T03:39:18;6.72;;;3.20;;
55609;SDS011;41486;52.502;13.486;2023-08-07T03:41:46;6.25;;;2.83;;
55609;SDS011;41486;52.502;13.486;2023-08-07T03:44:16;3.22;;;2.17;;
55609;SDS011;41486;52.502;13.486;2023-08-07T03:46:44;4.15;;;2.60;;
55609;SDS011;41486;52.502;13.486;2023-08-07T03:49:12;3.85;;;2.60;;
55609;SDS011;41486;52.502;13.486;2023-08-07T03:51:41;3.63;;;2.75;;
55609;SDS011;41486;52.502;13.486;2023-08-07T03:54:09;4.05;;;2.40;;
55609;SDS011;41486;52.502;13.486;2023-08-07T03:56:38;5.80;;;2.60;;
55609;SDS011;41486;52.502;13.486;2023-08-07T03:59:06;6.00;;;2.97;;
55609;SDS011;41486;52.502;13.486;2023-08-07T04:01:34;4.63;;;2.50;;
55609;SDS011;41486;52.502;13.486;2023-08-07T04:04:03;5.43;;;2.25;;
55609;SDS011;41486;52.502;13.486;2023-08-07T04:06:31;4.15;;;2.80;;
55609;SDS011;41486;52.502;13.486;2023-08-07T04:08:59;5.47;;;2.67;;
55609;SDS011;41486;52.502;13.486;2023-08-07T04:11:27;4.20;;;2.50;;
55609;SDS011;41486;52.502;13.486;2023-08-07T04:13:57;3.95;;;2.42;;
55609;SDS011;41486;52.502;13.486;2023-08-07T04:16:25;2.10;;;1.77;;
55609;SDS011;41486;52.502;13.486;2023-08-07T04:18:53;2.67;;;1.85;;
55609;SDS011;41486;52.502;13.486;2023-08-07T04:21:21;6.32;;;2.30;;
55609;SDS011;41486;52.502;13.486;2023-08-07T04:23:49;5.53;;;2.67;;
55609;SDS011;41486;52.502;13.486;2023-08-07T04:26:23;3.28;;;2.60;;
55609;SDS011;41486;52.502;13.486;2023-08-07T04:28:51;3.90;;;2.58;;
55609;SDS011;41486;52.502;13.486;2023-08-07T04:31:20;3.28;;;2.63;;
55609;SDS011;41486;52.502;13.486;2023-08-07T04:33:49;3.97;;;2.35;;
55609;SDS011;41486;52.502;13.486;2023-08-07T04:36:17;3.35;;;2.40;;
55609;SDS011;41486;52.502;13.486;2023-08-07T04:38:45;3.20;;;2.58;;
55609;SDS011;41486;52.502;13.486;2023-08-07T04:41:13;4.70;;;2.45;;
55609;SDS011;41486;52.502;13.486;2023-08-07T04:43:41;5.13;;;2.70;;
55609;SDS011;41486;52.502;13.486;2023-08-07T04:46:10;3.78;;;2.33;;
55609;SDS011;41486;52.502;13.486;2023-08-07T04:48:40;5.10;;;2.42;;
55609;SDS011;41486;52.502;13.486;2023-08-07T04:51:08;3.53;;;2.35;;
55609;SDS011;41486;52.502;13.486;2023-08-07T04:53:36;4.78;;;2.65;;
55609;SDS011;41486;52.502;13.486;2023-08-07T04:56:04;5.00;;;2.25;;
55609;SDS011;41486;52.502;13.486;2023-08-07T04:58:32;5.18;;;2.40;;
55609;SDS011;41486;52.502;13.486;2023-08-07T05:01:00;3.65;;;2.20;;
55609;SDS011;41486;52.502;13.486;2023-08-07T05:03:28;3.72;;;2.25;;
55609;SDS011;41486;52.502;13.486;2023-08-07T05:06:01;2.28;;;2.00;;
55609;SDS011;41486;52.502;13.486;2023-08-07T05:08:29;2.80;;;1.92;;
55609;SDS011;41486;52.502;13.486;2023-08-07T05:10:57;3.60;;;2.00;;
55609;SDS011;41486;52.502;13.486;2023-08-07T05:13:25;2.28;;;1.70;;
55609;SDS011;41486;52.502;13.486;2023-08-07T05:15:53;4.10;;;2.45;;
55609;SDS011;41486;52.502;13.486;2023-08-07T05:18:21;2.03;;;1.77;;
55609;SDS011;41486;52.502;13.486;2023-08-07T05:20:49;4.35;;;2.30;;
55609;SDS011;41486;52.502;13.486;2023-08-07T05:23:18;4.03;;;2.42;;
55609;SDS011;41486;52.502;13.486;2023-08-07T05:25:46;1.65;;;1.27;;
55609;SDS011;41486;52.502;13.486;2023-08-07T05:28:15;6.22;;;2.10;;
55609;SDS011;41486;52.502;13.486;2023-08-07T05:30:43;2.90;;;2.17;;
55609;SDS011;41486;52.502;13.486;2023-08-07T05:33:11;4.80;;;2.05;;
55609;SDS011;41486;52.502;13.486;2023-08-07T05:35:41;3.05;;;1.80;;
55609;SDS011;41486;52.502;13.486;2023-08-07T05:38:09;4.72;;;1.80;;
55609;SDS011;41486;52.502;13.486;2023-08-07T05:40:39;2.95;;;1.70;;
55609;SDS011;41486;52.502;13.486;2023-08-07T05:43:07;2.45;;;1.50;;
55609;SDS011;41486;52.502;13.486;2023-08-07T05:45:37;5.47;;;1.80;;
55609;SDS011;41486;52.502;13.486;2023-08-07T05:48:06;2.35;;;1.90;;
55609;SDS011;41486;52.502;13.486;2023-08-07T05:50:35;5.20;;;1.80;;
55609;SDS011;41486;52.502;13.486;2023-08-07T05:53:04;4.45;;;2.00;;
55609;SDS011;41486;52.502;13.486;2023-08-07T05:55:32;3.08;;;2.15;;
55609;SDS011;41486;52.502;13.486;2023-08-07T05:58:01;3.80;;;1.92;;
55609;SDS011;41486;52.502;13.486;2023-08-07T06:00:31;4.05;;;2.25;;
55609;SDS011;41486;52.502;13.486;2023-08-07T06:02:59;4.40;;;1.77;;
55609;SDS011;41486;52.502;13.486;2023-08-07T06:05:27;3.53;;;1.95;;
55609;SDS011;41486;52.502;13.486;2023-08-07T06:07:56;2.38;;;1.55;;
55609;SDS011;41486;52.502;13.486;2023-08-07T06:10:24;6.15;;;2.03;;
55609;SDS011;41486;52.502;13.486;2023-08-07T06:12:52;2.58;;;2.13;;
55609;SDS011;41486;52.502;13.486;2023-08-07T06:15:22;2.95;;;1.90;;
55609;SDS011;41486;52.502;13.486;2023-08-07T06:17:50;2.03;;;1.77;;
55609;SDS011;41486;52.502;13.486;2023-08-07T06:20:19;3.67;;;1.67;;
55609;SDS011;41486;52.502;13.486;2023-08-07T06:22:47;2.10;;;1.67;;
55609;SDS011;41486;52.502;13.486;2023-08-07T06:25:16;2.67;;;1.45;;
55609;SDS011;41486;52.502;13.486;2023-08-07T06:27:45;3.92;;;2.60;;
55609;SDS011;41486;52.502;13.486;2023-08-07T06:30:13;4.82;;;1.65;;
55609;SDS011;41486;52.502;13.486;2023-08-07T06:32:43;1.88;;;1.50;;
55609;SDS011;41486;52.502;13.486;2023-08-07T06:35:11;3.92;;;1.40;;
55609;SDS011;41486;52.502;13.486;2023-08-07T06:37:39;1.88;;;1.23;;
55609;SDS011;41486;52.502;13.486;2023-08-07T06:40:07;4.07;;;1.92;;
55609;SDS011;41486;52.502;13.486;2023-08-07T06:42:36;1.95;;;1.30;;
55609;SDS011;41486;52.502;13.486;2023-08-07T06:45:05;3.65;;;1.33;;
55609;SDS011;41486;52.502;13.486;2023-08-07T06:47:33;3.03;;;1.33;;
55609;SDS011;41486;52.502;13.486;2023-08-07T06:50:03;1.88;;;1.30;;
55609;SDS011;41486;52.502;13.486;2023-08-07T06:52:34;1.83;;;1.40;;
55609;SDS011;41486;52.502;13.486;2023-08-07T06:55:07;1.92;;;1.40;;
55609;SDS011;41486;52.502;13.486;2023-08-07T06:57:36;1.52;;;1.20;;
55609;SDS011;41486;52.502;13.486;2023-08-07T07:00:04;1.85;;;1.10;;
55609;SDS011;41486;52.502;13.486;2023-08-07T07:02:33;2.10;;;1.30;;
55609;SDS011;41486;52.502;13.486;2023-08-07T07:05:05;3.72;;;2.78;;
55609;SDS011;41486;52.502;13.486;2023-08-07T07:07:33;1.48;;;1.15;;
55609;SDS011;41486;52.502;13.486;2023-08-07T07:10:01;4.55;;;1.80;;
55609;SDS011;41486;52.502;13.486;2023-08-07T07:12:29;1.65;;;1.17;;
55609;SDS011;41486;52.502;13.486;2023-08-07T07:14:57;3.00;;;1.30;;
55609;SDS011;41486;52.502;13.486;2023-08-07T07:17:25;2.40;;;0.98;;
55609;SDS011;41486;52.502;13.486;2023-08-07T07:19:53;4.55;;;1.20;;
55609;SDS011;41486;52.502;13.486;2023-08-07T07:22:24;1.58;;;1.13;;
55609;SDS011;41486;52.502;13.486;2023-08-07T07:24:52;1.77;;;1.05;;
55609;SDS011;41486;52.502;13.486;2023-08-07T07:27:20;1.80;;;1.45;;
55609;SDS011;41486;52.502;13.486;2023-08-07T07:29:52;1.10;;;0.80;;
55609;SDS011;41486;52.502;13.486;2023-08-07T07:32:20;1.60;;;0.95;;
55609;SDS011;41486;52.502;13.486;2023-08-07T07:34:48;2.08;;;0.85;;
55609;SDS011;41486;52.502;13.486;2023-08-07T07:37:16;2.75;;;1.30;;
55609;SDS011;41486;52.502;13.486;2023-08-07T07:39:46;4.20;;;1.35;;
55609;SDS011;41486;52.502;13.486;2023-08-07T07:42:14;1.55;;;1.33;;
55609;SDS011;41486;52.502;13.486;2023-08-07T07:44:42;4.70;;;1.45;;
55609;SDS011;41486;52.502;13.486;2023-08-07T07:47:10;2.55;;;1.08;;
55609;SDS011;41486;52.502;13.486;2023-08-07T07:49:43;1.15;;;1.05;;
55609;SDS011;41486;52.502;13.486;2023-08-07T07:52:12;1.10;;;1.00;;
55609;SDS011;41486;52.502;13.486;2023-08-07T07:54:40;0.95;;;0.93;;
55609;SDS011;41486;52.502;13.486;2023-08-07T07:57:10;1.70;;;1.27;;
55609;SDS011;41486;52.502;13.486;2023-08-07T07:59:38;2.38;;;1.10;;
55609;SDS011;41486;52.502;13.486;2023-08-07T08:02:08;3.58;;;1.23;;
55609;SDS011;41486;52.502;13.486;2023-08-07T08:04:36;1.17;;;1.08;;
55609;SDS011;41486;52.502;13.486;2023-08-07T08:07:06;2.70;;;1.20;;
55609;SDS011;41486;52.502;13.486;2023-08-07T08:09:34;1.60;;;1.05;;
55609;SDS011;41486;52.502;13.486;2023-08-07T08:12:02;3.78;;;1.20;;
55609;SDS011;41486;52.502;13.486;2023-08-07T08:14:32;2.58;;;1.30;;
55609;SDS011;41486;52.502;13.486;2023-08-07T08:17:16;4.03;;;1.10;;
55609;SDS011;41486;52.502;13.486;2023-08-07T08:19:44;1.73;;;1.30;;
55609;SDS011;41486;52.502;13.486;2023-08-07T08:22:17;1.20;;;1.10;;
55609;SDS011;41486;52.502;13.486;2023-08-07T08:24:45;3.00;;;1.15;;
55609;SDS011;41486;52.502;13.486;2023-08-07T08:27:14;1.48;;;0.93;;
55609;SDS011;41486;52.502;13.486;2023-08-07T08:29:52;4.05;;;1.20;;
55609;SDS011;41486;52.502;13.486;2023-08-07T08:32:21;1.70;;;1.10;;
55609;SDS011;41486;52.502;13.486;2023-08-07T08:34:52;3.05;;;1.38;;
55609;SDS011;41486;52.502;13.486;2023-08-07T08:37:23;3.30;;;1.23;;
55609;SDS011;41486;52.502;13.486;2023-08-07T08:39:51;1.65;;;1.02;;
55609;SDS011;41486;52.502;13.486;2023-08-07T08:42:19;1.92;;;1.23;;
55609;SDS011;41486;52.502;13.486;2023-08-07T08:44:50;1.85;;;1.15;;
55609;SDS011;41486;52.502;13.486;2023-08-07T08:47:21;2.25;;;1.63;;
55609;SDS011;41486;52.502;13.486;2023-08-07T08:49:50;2.30;;;0.95;;
55609;SDS011;41486;52.502;13.486;2023-08-07T08:52:23;2.00;;;1.17;;
55609;SDS011;41486;52.502;13.486;2023-08-07T08:54:51;2.25;;;1.27;;
55609;SDS011;41486;52.502;13.486;2023-08-07T08:57:19;2.42;;;0.98;;
55609;SDS011;41486;52.502;13.486;2023-08-07T08:59:47;1.42;;;1.08;;
55609;SDS011;41486;52.502;13.486;2023-08-07T09:02:20;2.42;;;1.27;;
55609;SDS011;41486;52.502;13.486;2023-08-07T09:04:48;1.65;;;0.82;;
55609;SDS011;41486;52.502;13.486;2023-08-07T09:07:18;1.80;;;1.20;;
55609;SDS011;41486;52.502;13.486;2023-08-07T09:09:48;1.45;;;1.10;;
55609;SDS011;41486;52.502;13.486;2023-08-07T09:12:19;1.25;;;0.93;;
55609;SDS011;41486;52.502;13.486;2023-08-07T09:14:51;2.35;;;1.00;;
55609;SDS011;41486;52.502;13.486;2023-08-07T09:17:24;3.78;;;1.20;;
55609;SDS011;41486;52.502;13.486;2023-08-07T09:19:56;2.60;;;1.55;;
55609;SDS011;41486;52.502;13.486;2023-08-07T09:22:25;1.10;;;1.00;;
55609;SDS011;41486;52.502;13.486;2023-08-07T09:24:53;1.85;;;1.00;;
55609;SDS011;41486;52.502;13.486;2023-08-07T09:27:22;1.85;;;1.17;;
55609;SDS011;41486;52.502;13.486;2023-08-07T09:29:50;2.35;;;0.98;;
55609;SDS011;41486;52.502;13.486;2023-08-07T09:32:18;2.72;;;1.00;;
55609;SDS011;41486;52.502;13.486;2023-08-07T09:34:50;1.25;;;0.95;;
55609;SDS011;41486;52.502;13.486;2023-08-07T09:37:19;1.48;;;1.25;;
55609;SDS011;41486;52.502;13.486;2023-08-07T09:39:47;4.57;;;1.15;;
55609;SDS011;41486;52.502;13.486;2023-08-07T09:42:15;4.32;;;1.42;;
55609;SDS011;41486;52.502;13.486;2023-08-07T09:44:44;1.00;;;0.80;;
55609;SDS011;41486;52.502;13.486;2023-08-07T09:47:13;2.05;;;1.00;;
55609;SDS011;41486;52.502;13.486;2023-08-07T09:49:43;2.33;;;1.05;;
55609;SDS011;41486;52.502;13.486;2023-08-07T09:52:14;1.60;;;1.02;;
55609;SDS011;41486;52.502;13.486;2023-08-07T09:54:42;1.23;;;1.10;;
55609;SDS011;41486;52.502;13.486;2023-08-07T09:57:10;2.10;;;1.58;;
55609;SDS011;41486;52.502;13.486;2023-08-07T09:59:38;2.53;;;1.30;;
55609;SDS011;41486;52.502;13.486;2023-08-07T10:02:07;0.73;;;0.73;;
55609;SDS011;41486;52.502;13.486;2023-08-07T10:04:37;1.48;;;1.00;;
55609;SDS011;41486;52.502;13.486;2023-08-07T10:07:07;2.80;;;0.98;;
55609;SDS011;41486;52.502;13.486;2023-08-07T10:09:38;5.13;;;0.93;;
55609;SDS011;41486;52.502;13.486;2023-08-07T10:12:08;2.08;;;0.80;;
55609;SDS011;41486;52.502;13.486;2023-08-07T10:14:38;3.47;;;1.00;;
55609;SDS011;41486;52.502;13.486;2023-08-07T10:17:09;0.98;;;0.75;;
55609;SDS011;41486;52.502;13.486;2023-08-07T10:19:40;2.95;;;1.13;;
55609;SDS011;41486;52.502;13.486;2023-08-07T10:22:08;1.10;;;0.70;;
55609;SDS011;41486;52.502;13.486;2023-08-07T10:24:38;1.73;;;1.15;;
55609;SDS011;41486;52.502;13.486;2023-08-07T10:27:10;1.23;;;0.80;;
55609;SDS011;41486;52.502;13.486;2023-08-07T10:29:40;1.52;;;1.20;;
55609;SDS011;41486;52.502;13.486;2023-08-07T10:32:09;2.63;;;1.13;;
55609;SDS011;41486;52.502;13.486;2023-08-07T10:34:39;3.15;;;0.88;;
55609;SDS011;41486;52.502;13.486;2023-08-07T10:37:06;1.77;;;0.80;;
55609;SDS011;41486;52.502;13.486;2023-08-07T10:39:35;1.52;;;1.17;;
55609;SDS011;41486;52.502;13.486;2023-08-07T10:42:06;1.02;;;0.60;;
55609;SDS011;41486;52.502;13.486;2023-08-07T10:44:44;2.42;;;0.98;;
55609;SDS011;41486;52.502;13.486;2023-08-07T10:47:17;0.75;;;0.75;;
55609;SDS011;41486;52.502;13.486;2023-08-07T10:50:01;2.58;;;0.68;;
55609;SDS011;41486;52.502;13.486;2023-08-07T10:52:29;1.38;;;0.80;;
55609;SDS011;41486;52.502;13.486;2023-08-07T10:54:57;4.82;;;3.33;;
55609;SDS011;41486;52.502;13.486;2023-08-07T10:57:26;5.75;;;4.28;;
55609;SDS011;41486;52.502;13.486;2023-08-07T11:02:32;1.33;;;0.80;;
55609;SDS011;41486;52.502;13.486;2023-08-07T11:05:00;1.83;;;0.77;;
55609;SDS011;41486;52.502;13.486;2023-08-07T11:07:29;2.42;;;0.98;;
55609;SDS011;41486;52.502;13.486;2023-08-07T11:09:58;4.13;;;0.90;;
55609;SDS011;41486;52.502;13.486;2023-08-07T11:12:28;3.20;;;0.90;;
55609;SDS011;41486;52.502;13.486;2023-08-07T11:14:56;1.17;;;0.60;;
55609;SDS011;41486;52.502;13.486;2023-08-07T11:17:24;1.55;;;0.75;;
55609;SDS011;41486;52.502;13.486;2023-08-07T11:19:53;1.88;;;1.00;;
55609;SDS011;41486;52.502;13.486;2023-08-07T11:22:21;0.77;;;0.75;;
55609;SDS011;41486;52.502;13.486;2023-08-07T11:24:50;1.92;;;1.08;;
55609;SDS011;41486;52.502;13.486;2023-08-07T11:27:20;1.63;;;0.80;;
55609;SDS011;41486;52.502;13.486;2023-08-07T11:29:52;3.05;;;1.00;;
55609;SDS011;41486;52.502;13.486;2023-08-07T11:32:20;1.58;;;1.38;;
55609;SDS011;41486;52.502;13.486;2023-08-07T11:34:49;2.05;;;1.30;;
55609;SDS011;41486;52.502;13.486;2023-08-07T11:37:17;2.47;;;1.30;;
55609;SDS011;41486;52.502;13.486;2023-08-07T11:39:46;2.90;;;1.10;;
55609;SDS011;41486;52.502;13.486;2023-08-07T11:42:14;1.70;;;1.05;;
55609;SDS011;41486;52.502;13.486;2023-08-07T11:44:42;2.60;;;1.33;;
55609;SDS011;41486;52.502;13.486;2023-08-07T11:47:13;3.88;;;1.20;;
55609;SDS011;41486;52.502;13.486;2023-08-07T11:49:42;2.05;;;1.10;;
55609;SDS011;41486;52.502;13.486;2023-08-07T11:52:10;4.82;;;1.15;;
55609;SDS011;41486;52.502;13.486;2023-08-07T11:54:40;2.60;;;1.00;;
55609;SDS011;41486;52.502;13.486;2023-08-07T11:57:14;1.67;;;1.02;;
55609;SDS011;41486;52.502;13.486;2023-08-07T11:59:46;1.85;;;1.02;;
55609;SDS011;41486;52.502;13.486;2023-08-07T12:02:16;2.28;;;1.10;;
55609;SDS011;41486;52.502;13.486;2023-08-07T12:04:50;0.98;;;0.85;;
55609;SDS011;41486;52.502;13.486;2023-08-07T12:07:18;3.63;;;1.05;;
55609;SDS011;41486;52.502;13.486;2023-08-07T12:09:51;1.70;;;0.80;;
55609;SDS011;41486;52.502;13.486;2023-08-07T12:12:21;3.05;;;1.02;;
55609;SDS011;41486;52.502;13.486;2023-08-07T12:14:52;1.67;;;0.82;;
55609;SDS011;41486;52.502;13.486;2023-08-07T12:17:22;1.80;;;0.95;;
55609;SDS011;41486;52.502;13.486;2023-08-07T12:19:50;2.15;;;0.90;;
55609;SDS011;41486;52.502;13.486;2023-08-07T12:22:19;2.80;;;0.85;;
55609;SDS011;41486;52.502;13.486;2023-08-07T12:24:48;1.98;;;1.00;;
55609;SDS011;41486;52.502;13.486;2023-08-07T12:27:16;2.03;;;0.80;;
55609;SDS011;41486;52.502;13.486;2023-08-07T12:29:44;3.83;;;1.20;;
55609;SDS011;41486;52.502;13.486;2023-08-07T12:32:12;2.45;;;1.30;;
55609;SDS011;41486;52.502;13.486;2023-08-07T12:34:41;2.70;;;2.03;;
55609;SDS011;41486;52.502;13.486;2023-08-07T12:37:12;1.35;;;1.00;;
55609;SDS011;41486;52.502;13.486;2023-08-07T12:39:40;1.08;;;0.90;;
55609;SDS011;41486;52.502;13.486;2023-08-07T12:42:11;3.63;;;1.38;;
55609;SDS011;41486;52.502;13.486;2023-08-07T12:44:42;2.45;;;0.80;;
55609;SDS011;41486;52.502;13.486;2023-08-07T12:47:11;2.97;;;1.02;;
55609;SDS011;41486;52.502;13.486;2023-08-07T12:49:39;1.98;;;0.68;;
55609;SDS011;41486;52.502;13.486;2023-08-07T12:52:09;2.15;;;0.68;;
55609;SDS011;41486;52.502;13.486;2023-08-07T12:54:37;2.38;;;1.00;;
55609;SDS011;41486;52.502;13.486;2023-08-07T12:57:05;2.65;;;0.93;;
55609;SDS011;41486;52.502;13.486;2023-08-07T12:59:33;3.83;;;1.10;;
55609;SDS011;41486;52.502;13.486;2023-08-07T13:02:01;1.83;;;1.27;;
55609;SDS011;41486;52.502;13.486;2023-08-07T13:04:29;2.25;;;0.95;;
55609;SDS011;41486;52.502;13.486;2023-08-07T13:06:59;2.72;;;1.13;;
55609;SDS011;41486;52.502;13.486;2023-08-07T13:09:29;1.50;;;0.77;;
55609;SDS011;41486;52.502;13.486;2023-08-07T13:11:57;2.40;;;1.30;;
55609;SDS011;41486;52.502;13.486;2023-08-07T13:14:25;3.55;;;1.23;;
55609;SDS011;41486;52.502;13.486;2023-08-07T13:16:53;5.45;;;1.40;;
55609;SDS011;41486;52.502;13.486;2023-08-07T13:19:22;5.60;;;1.30;;
55609;SDS011;41486;52.502;13.486;2023-08-07T13:21:50;0.82;;;0.75;;
55609;SDS011;41486;52.502;13.486;2023-08-07T13:24:18;4.72;;;1.50;;
55609;SDS011;41486;52.502;13.486;2023-08-07T13:26:47;2.38;;;1.30;;
55609;SDS011;41486;52.502;13.486;2023-08-07T13:29:16;2.42;;;1.00;;
55609;SDS011;41486;52.502;13.486;2023-08-07T13:31:44;4.05;;;0.90;;
55609;SDS011;41486;52.502;13.486;2023-08-07T13:34:13;4.53;;;1.13;;
55609;SDS011;41486;52.502;13.486;2023-08-07T13:36:41;2.08;;;0.98;;
55609;SDS011;41486;52.502;13.486;2023-08-07T13:39:09;3.92;;;1.10;;
55609;SDS011;41486;52.502;13.486;2023-08-07T13:41:37;2.33;;;1.08;;
55609;SDS011;41486;52.502;13.486;2023-08-07T13:44:07;1.27;;;1.00;;
55609;SDS011;41486;52.502;13.486;2023-08-07T13:46:37;3.63;;;1.30;;
55609;SDS011;41486;52.502;13.486;2023-08-07T13:49:05;1.23;;;0.68;;
55609;SDS011;41486;52.502;13.486;2023-08-07T13:51:33;2.13;;;0.93;;
55609;SDS011;41486;52.502;13.486;2023-08-07T13:54:01;2.42;;;1.02;;
55609;SDS011;41486;52.502;13.486;2023-08-07T13:56:29;1.52;;;0.88;;
55609;SDS011;41486;52.502;13.486;2023-08-07T13:59:00;3.50;;;1.02;;
55609;SDS011;41486;52.502;13.486;2023-08-07T14:01:30;3.95;;;1.17;;
55609;SDS011;41486;52.502;13.486;2023-08-07T14:04:01;1.83;;;1.42;;
55609;SDS011;41486;52.502;13.486;2023-08-07T14:06:34;3.22;;;1.00;;
55609;SDS011;41486;52.502;13.486;2023-08-07T14:09:37;1.27;;;1.05;;
55609;SDS011;41486;52.502;13.486;2023-08-07T14:12:06;3.63;;;0.98;;
55609;SDS011;41486;52.502;13.486;2023-08-07T14:14:34;5.00;;;1.48;;
55609;SDS011;41486;52.502;13.486;2023-08-07T14:17:04;4.47;;;0.88;;
55609;SDS011;41486;52.502;13.486;2023-08-07T14:19:33;6.70;;;1.42;;
55609;SDS011;41486;52.502;13.486;2023-08-07T14:22:01;2.58;;;1.10;;
55609;SDS011;41486;52.502;13.486;2023-08-07T14:24:29;2.42;;;1.10;;
55609;SDS011;41486;52.502;13.486;2023-08-07T14:26:57;2.08;;;1.13;;
55609;SDS011;41486;52.502;13.486;2023-08-07T14:29:28;1.92;;;1.30;;
55609;SDS011;41486;52.502;13.486;2023-08-07T14:31:57;3.58;;;0.98;;
55609;SDS011;41486;52.502;13.486;2023-08-07T14:34:26;5.50;;;0.98;;
55609;SDS011;41486;52.502;13.486;2023-08-07T14:36:54;1.42;;;1.00;;
55609;SDS011;41486;52.502;13.486;2023-08-07T14:39:22;4.95;;;1.70;;
55609;SDS011;41486;52.502;13.486;2023-08-07T14:41:50;4.22;;;1.00;;
55609;SDS011;41486;52.502;13.486;2023-08-07T14:44:19;3.15;;;1.30;;
55609;SDS011;41486;52.502;13.486;2023-08-07T14:46:47;4.85;;;1.27;;
55609;SDS011;41486;52.502;13.486;2023-08-07T14:49:15;2.10;;;0.75;;